Tiempo atmosférico en la estación meteorológica de Ayamonte, Huelva (2 m.)



Fecha
DESCASC
Temp. máxima en grados centígrados (hora)
DESCASC
Temp. mínima en grados centígrados (hora)
DESCASC
Temp. media en grados centígrados
DESCASC
Racha de viento máxima en m/sg (hora)
DESCASC
Velocidad máxima media en intervalos de 10 minutos(hora)
DESCASC
Precipitaciones diarias en mm
DESCASC
Precipitaciones de 00:00 a 06:00 en mm
DESCASC
Precipitaciones de 06:00 a 12:00 en mm
DESCASC
Precipitaciones de 12:00 a 18:00 en mm
DESCASC
Precipitaciones de 18:00 a 24:00 en mm
DESCASC
20-01-2021 19.7 (14:20) 12.3 (00:00) 16 13.89 (08:30) 8.61 (08:30) 5.2 0 5 0.2 0
08-01-2021 9.6 (00:10) 7 (00:00) 8.3 11.39 (20:00) 5.28 (21:20) 7.9 2.7 1.6 3.4 0.2
28-12-2020 15.8 (14:30) 6.6 (00:00) 11.2 8.33 (10:00) 4.17 (07:40) 0.6 0 0.6 0 0
25-01-2021 21.2 (15:30) 13.7 (00:00) 17.5 8.33 (10:20) 4.44 (12:00) 0.7 0.2 0.4 0.1 0
26-01-2021 19.5 (15:30) 13.5 (00:00) 16.5 5.28 (12:50) 3.06 (12:30) 0.1 0 0.1 0 0
22-01-2021 19 (13:00) 12.1 (00:00) 15.6 12.78 (00:40) 7.22 (00:40) 0.8 0.7 0.1 0 0
12-01-2021 14.4 (15:10) 2.1 (00:00) 8.2 4.72 (04:50) 2.5 (03:00) 0 0 0 0 0
24-01-2021 18.8 (14:50) 13.5 (00:00) 16.1 8.89 (04:30) 4.72 (02:20) 0 0 0 0 0
23-01-2021 19.3 (15:30) 10.1 (00:00) 14.7 10.83 (17:10) 6.39 (15:20) 0 0 0 0 0
21-01-2021 19.9 (14:00) 8.1 (00:00) 14 10.28 (19:40) 6.39 (23:50) 1.2 0 0 0 1.2
19-01-2021 15.2 (16:50) 5.2 (00:00) 10.2 7.78 (23:00) 4.72 (23:00) 0 0 0 0 0
18-01-2021 17 (15:00) 3.6 (00:00) 10.3 3.61 (01:50) 1.94 (12:20) 0 0 0 0 0
17-01-2021 18.2 (15:20) 4.9 (00:00) 11.6 4.72 (14:10) 2.5 (14:10) 0 0 0 0 0
16-01-2021 16.9 (16:30) 6 (00:00) 11.4 5.28 (21:10) 2.5 (23:00) 0 0 0 0 0
15-01-2021 15.8 (15:20) 6.1 (00:00) 11 7.5 (06:40) 3.61 (06:40) 0 0 0 0 0
14-01-2021 13.7 (16:40) 3.2 (05:30) 8.4 8.06 (13:10) 3.61 (12:40) 0 0 0 0 0
13-01-2021 15.8 (16:10) 2.3 (00:00) 9.1 5 (11:20) 2.5 (11:30) 0 0 0 0 0
11-01-2021 13.8 (16:30) 3.9 (00:00) 8.9 7.5 (05:50) 3.33 (06:00) 0 0 0 0 0
10-01-2021 11.9 (16:00) 4.6 (06:40) 8.2 6.39 (18:00) 3.33 (07:20) 0 0 0 0 0
09-01-2021 12.5 (13:50) 2.5 (00:00) 7.5 8.06 (00:20) 3.61 (18:50) 0 0 0 0 0
07-01-2021 13.2 (14:50) 8 (00:00) 10.6 6.67 (00:10) 3.33 (00:20) 0.1 0.1 0 0 0
06-01-2021 12.1 (15:30) 3.3 (00:00) 7.7 7.5 (22:20) 3.33 (22:20) 1.6 0 0 0 1.6
05-01-2021 12 (13:50) 4.4 (00:00) 8.2 4.44 (23:59) 1.67 (12:00) 0.1 0.1 0 0 0
04-01-2021 15.1 (16:20) 3.5 (00:00) 9.3 4.44 (13:20) 2.5 (16:10) 0.3 0 0 0 0.3
03-01-2021 14.9 (15:00) 4.2 (00:00) 9.5 4.17 (15:10) 2.22 (16:10) 0 0 0 0 0
02-01-2021 14.1 (15:40) 4.7 (00:00) 9.4 6.39 (15:50) 2.78 (15:30) 0 0 0 0 0
01-01-2021 15 (15:00) 7.3 (00:00) 11.2 10.28 (12:50) 4.44 (12:50) 0.1 0 0 0.1 0
31-12-2020 16.4 (14:50) 5 (00:00) 10.7 6.39 (16:30) 3.61 (16:30) 0.5 0 0 0.4 0.1
30-12-2020 14.7 (15:50) 4.9 (00:00) 9.8 7.5 (11:50) 3.61 (12:00) 0 0 0 0 0
29-12-2020 15.6 (12:10) 5.6 (00:00) 10.6 8.06 (14:40) 3.06 (14:40) 0 0 0 0 0

Gráficas

Temp. máximas Temp. mínimas Temp. medias Precipitaciones Rachas de viento máximas Velocidades máximas media en intervalos de 10 minutos

Datos horarios

Fecha y hora oficial Temperatura (ºC) Velocidad del viento (km/h) Dirección del viento Racha (km/h) Dirección de racha Precipitación (mm) Presión (hPa) Tendencia (hPa) Humedad (%)
2021-01-26 23:00:00 17.2 5 Noroeste 9 Norte 0 1026.7 -- 87
2021-01-26 22:00:00 16 0 Calma 5 Oeste 0 1026.3 -- 86
2021-01-26 21:00:00 16.2 2 Noroeste 3 Noroeste 0 1025.7 -- 84
2021-01-26 20:00:00 16.9 0 Calma 4 Sudoeste 0 1025.6 -- 83
2021-01-26 19:00:00 17.7 2 Sudoeste 9 Oeste 0 1025.2 -- 80
2021-01-26 18:00:00 18.6 4 Oeste 12 Sudoeste 0 1024.8 -- 77
2021-01-26 17:00:00 19.1 6 Oeste 15 Oeste 0 1024.4 -- 76
2021-01-26 16:00:00 18.8 7 Sudoeste 18 Sudoeste 0 1024.1 -- 76
2021-01-26 15:00:00 18.4 8 Sudoeste 17 Oeste 0 1024.2 -- 79
2021-01-26 14:00:00 18.8 9 Oeste 18 Oeste 0 1024.6 -- 79
2021-01-26 13:00:00 18.6 9 Oeste 19 Oeste 0 1025.4 -- 80
2021-01-26 12:00:00 17.9 5 Sudoeste 12 Sudoeste 0 1025.6 -- 82
2021-01-26 11:00:00 17.2 4 Oeste 8 Oeste 0 1025.3 -- 87
2021-01-26 10:00:00 16.1 3 Oeste 7 Oeste 0 1024.8 -- 89
2021-01-26 09:00:00 15.6 2 Sudoeste 6 Sur 0.1 1024.3 -- 89
2021-01-26 08:00:00 15.4 0 Calma 6 Sudoeste 0 1023.6 -- 88
2021-01-26 07:00:00 15.2 4 Oeste 13 Oeste 0 1023.4 -- 88
2021-01-26 06:00:00 15.3 6 Oeste 11 Oeste 0 1023 -- 88
2021-01-26 05:00:00 15 3 Oeste 8 Sudoeste 0 1022.9 -- 87
2021-01-26 04:00:00 14.7 0 Calma 9 Noroeste 0 1023.1 -- 87
2021-01-26 03:00:00 14.3 4 Oeste 13 Sudoeste 0 1022.9 -- 87
2021-01-26 02:00:00 13.5 3 Oeste 8 Noroeste 0 1022.4 -- 86
2021-01-26 01:00:00 14.1 5 Oeste 8 Oeste 0 1022.1 -- 84
2021-01-26 00:00:00 14.8 0 Calma 6 Sudoeste 0 1022.3 -- 80
2021-01-25 23:00:00 15 3 Sur 6 Sur 0 1022.3 -- 79
2021-01-25 22:00:00 15.3 3 Noroeste 10 Noroeste 0 1021.9 -- 78
2021-01-25 21:00:00 14.7 2 Oeste 7 Oeste 0 1020.9 -- 74
2021-01-25 20:00:00 16.3 4 Noroeste 15 Norte 0 1020.3 -- 68
2021-01-25 19:00:00 17 5 Noroeste 15 Oeste 0 1019.6 -- 63
2021-01-25 18:00:00 18.8 7 Noroeste 18 Noroeste 0 1018.7 -- 54
2021-01-25 17:00:00 19.4 8 Noroeste 27 Noroeste 0 1018.4 -- 52
2021-01-25 16:00:00 19.4 12 Noroeste 26 Noroeste 0 1018.2 -- 53
2021-01-25 15:00:00 20.7 6 Noroeste 19 Noroeste 0 1017.9 -- 56
2021-01-25 14:00:00 19.2 9 Noroeste 19 Oeste 0 1018.2 -- 60
2021-01-25 13:00:00 18.2 9 Oeste 27 Sudoeste 0.1 1018.9 -- 78
2021-01-25 12:00:00 19.3 16 Sudoeste 27 Sudoeste 0 1018.7 -- 77
2021-01-25 11:00:00 16.8 16 Sudoeste 30 Sudoeste 0.3 1018.4 -- 89
2021-01-25 10:00:00 16.2 14 Sudoeste 23 Sudoeste 0.1 1018.1 -- 90
2021-01-25 09:00:00 15.5 12 Sudoeste 22 Sudoeste 0 1017.8 -- 89
2021-01-25 08:00:00 15.4 10 Sudoeste 19 Sudoeste 0 1017.3 -- 89
2021-01-25 07:00:00 15.1 7 Sudoeste 17 Sudoeste 0 1017.5 -- 89
2021-01-25 06:00:00 14.8 8 Sudoeste 15 Oeste 0.1 1017.5 -- 89
2021-01-25 05:00:00 14.8 6 Sudoeste 12 Sudoeste 0 1017.6 -- 89
2021-01-25 04:00:00 14.1 2 Sudoeste 9 Oeste 0 1018.2 -- 87
2021-01-25 03:00:00 14.2 4 Oeste 11 Oeste 0.1 1018 -- 87
2021-01-25 02:00:00 14.5 2 Sudoeste 7 Oeste 0 1018.2 -- 84
2021-01-25 01:00:00 14.4 4 Sudoeste 17 Oeste 0 1018.7 -- 84
2021-01-25 00:00:00 13.7 4 Oeste 8 Oeste 0 1018.8 -- 84
2021-01-24 23:00:00 13.8 3 Sudoeste 4 Sudoeste 0 1018.6 -- 84
2021-01-24 22:00:00 13.7 2 Oeste 5 Noroeste 0 1018.7 -- 84
2021-01-24 21:00:00 14.5 0 Calma 5 Noroeste 0 1018.4 -- 80
2021-01-24 20:00:00 15 3 Oeste 10 Oeste 0 1018.1 -- 77
2021-01-24 19:00:00 15.4 8 Oeste 14 Oeste 0 1017.9 -- 75
2021-01-24 18:00:00 16 7 Sur 16 Sudoeste 0 1017.5 -- 75
2021-01-24 17:00:00 16.5 9 Sudoeste 18 Sudoeste 0 1017.6 -- 67
2021-01-24 16:00:00 18 10 Sudoeste 18 Sudoeste 0 1017.7 -- 54
2021-01-24 15:00:00 18.4 5 Noroeste 16 Noroeste 0 1017.8 -- 52
2021-01-24 14:00:00 17.2 5 Noroeste 16 Nordeste 0 1018.4 -- 57
2021-01-24 13:00:00 16.5 5 Norte 15 Noroeste 0 1019.4 -- 62
2021-01-24 12:00:00 15.9 3 Noroeste 10 Norte 0 1019.6 -- 69
2021-01-24 11:00:00 14.7 6 Noroeste 11 Noroeste 0 1019.3 -- 80
2021-01-24 10:00:00 15 0 Calma 11 Norte 0 1018.4 -- 84
2021-01-24 09:00:00 15 5 Noroeste 15 Norte 0 1017.5 -- 84
2021-01-24 08:00:00 15.1 5 Oeste 16 Oeste 0 1016.8 -- 90
2021-01-24 07:00:00 15.2 11 Oeste 22 Oeste 0 1016.3 -- 90
2021-01-24 06:00:00 15.5 13 Oeste 24 Oeste 0 1016 -- 89
2021-01-24 05:00:00 15.4 14 Oeste 32 Sudoeste 0 1016.2 -- 89
2021-01-24 04:00:00 15.2 14 Oeste 31 Oeste 0 1016.5 -- 89
2021-01-24 03:00:00 15 15 Oeste 30 Oeste 0 1016.8 -- 88
2021-01-24 02:00:00 15.3 16 Oeste 27 Sudoeste 0 1016.9 -- 88
2021-01-24 01:00:00 15.2 13 Sudoeste 25 Oeste 0 1017.6 -- 86
2021-01-24 00:00:00 15.5 13 Sudoeste 26 Oeste 0 1018 -- 87
2021-01-23 23:00:00 15.7 12 Oeste 24 Sudoeste 0 1018 -- 86
2021-01-23 22:00:00 15.7 13 Oeste 28 Sudoeste 0 1018.3 -- 86
2021-01-23 21:00:00 15.9 14 Oeste 34 Oeste 0 1018.1 -- 86
2021-01-23 20:00:00 15.5 15 Sudoeste 27 Oeste 0 1017.7 -- 86
2021-01-23 19:00:00 15.7 13 Oeste 26 Oeste 0 1017.9 -- 80
2021-01-23 18:00:00 15.9 14 Sudoeste 39 Sudoeste 0 1018.1 -- 76
2021-01-23 17:00:00 16.9 22 Oeste 38 Sudoeste 0 1018.1 -- 64
2021-01-23 16:00:00 18.5 20 Oeste 38 Sudoeste 0 1018.2 -- 55
2021-01-23 15:00:00 18.4 19 Oeste 38 Sudoeste 0 1018.8 -- 57
2021-01-23 14:00:00 17.7 20 Sudoeste 34 Sudoeste 0 1020.1 -- 60
2021-01-23 13:00:00 16.7 15 Sudoeste 27 Sudoeste 0 1021.2 -- 64
2021-01-23 12:00:00 17.9 12 Sudoeste 20 Oeste 0 1021.7 -- 65
2021-01-23 11:00:00 15.2 6 Sudoeste 13 Sudoeste 0 1021.7 -- 72
2021-01-23 10:00:00 12.5 3 Oeste 6 Oeste 0 1021.2 -- 87
2021-01-23 09:00:00 11.4 2 Noroeste 12 Sudoeste 0 1021.3 -- 87
2021-01-23 08:00:00 11.9 9 Oeste 16 Oeste 0 1021 -- 87
2021-01-23 07:00:00 11.5 6 Sudoeste 11 Sudoeste 0 1020.8 -- 86
2021-01-23 06:00:00 11.1 0 Calma 6 Oeste 0 1021.5 -- 86
2021-01-23 05:00:00 11.2 3 Oeste 9 Oeste 0 1021.7 -- 86
2021-01-23 04:00:00 10.6 3 Oeste 9 Oeste 0 1021.9 -- 86
2021-01-23 03:00:00 10.3 0 Calma 7 Oeste 0 1022.3 -- 86
2021-01-23 02:00:00 11.2 5 Oeste 13 Oeste 0 1022.1 -- 86
2021-01-23 01:00:00 11.1 4 Oeste 13 Oeste 0 1022.4 -- 82
2021-01-23 00:00:00 12.1 8 Oeste 15 Oeste 0 1022.4 -- 80
2021-01-22 23:00:00 13.3 8 Oeste 16 Oeste 0 1022.2 -- 76
2021-01-22 22:00:00 12.9 8 Oeste 15 Oeste 0 1021.9 -- 72
2021-01-22 21:00:00 13.3 8 Oeste 17 Oeste 0 1021.6 -- 67
2021-01-22 20:00:00 13.6 7 Oeste 22 Oeste 0 1021.5 -- 61
2021-01-22 19:00:00 15.2 8 Oeste 26 Oeste 0 1020.6 -- 55
2021-01-22 18:00:00 16 10 Noroeste 27 Noroeste 0 1019.7 -- 49
2021-01-22 17:00:00 17.5 13 Noroeste 30 Oeste 0 1019 -- 45
2021-01-22 16:00:00 17.4 10 Noroeste 33 Noroeste 0 1018.7 -- 48
2021-01-22 15:00:00 16.6 12 Noroeste 30 Noroeste 0 1019 -- 52
2021-01-22 14:00:00 18 10 Oeste 27 Norte 0 1019.3 -- 51
2021-01-22 13:00:00 18.7 13 Oeste 27 Oeste 0 1019.9 -- 46
2021-01-22 12:00:00 17.9 13 Sudoeste 24 Oeste 0 1020 -- 57
2021-01-22 11:00:00 17 9 Oeste 17 Oeste 0 1019.8 -- 63
2021-01-22 10:00:00 14.7 6 Sudoeste 12 Sudoeste 0 1019.1 -- 79
2021-01-22 09:00:00 13.2 6 Oeste 17 Oeste 0.1 1018.3 -- 84
2021-01-22 08:00:00 13.1 7 Oeste 14 Oeste 0 1017.3 -- 85
2021-01-22 07:00:00 13.3 6 Oeste 16 Oeste 0 1016.5 -- 87
2021-01-22 06:00:00 14.2 9 Oeste 17 Sudoeste 0 1016.1 -- 87
2021-01-22 05:00:00 14.9 8 Sudoeste 14 Sudoeste 0 1016.5 -- 86
2021-01-22 04:00:00 15.7 9 Oeste 20 Oeste 0.1 1016.8 -- 85
2021-01-22 03:00:00 15.8 12 Oeste 33 Oeste 0 1016.3 -- 85
2021-01-22 02:00:00 15.6 12 Oeste 39 Oeste 0 1016.3 -- 89
2021-01-22 01:00:00 16.4 21 Sudoeste 46 Sudoeste 0.6 1016.3 -- 89
2021-01-22 00:00:00 16 22 Sudoeste 37 Sudoeste 0.4 1016.8 -- 89
2021-01-21 23:00:00 15.9 20 Sudoeste 33 Sudoeste 0.4 1017.1 -- 89
2021-01-21 22:00:00 15.7 21 Sudoeste 34 Sudoeste 0.2 1017.6 -- 90
2021-01-21 21:00:00 15.5 19 Sudoeste 36 Sudoeste 0.2 1018.2 -- 89
2021-01-21 20:00:00 16 21 Sudoeste 37 Sudoeste 0 1018 -- 82
2021-01-21 19:00:00 15.9 21 Sudoeste 31 Sudoeste 0 1018 -- 81
2021-01-21 18:00:00 16.5 16 Sudoeste 36 Sudoeste 0 1018.3 -- 80
2021-01-21 17:00:00 16.5 19 Sudoeste 31 Sudoeste 0 1018.4 -- 79
2021-01-21 16:00:00 17.7 18 Sudoeste 30 Oeste 0 1018.7 -- 69
2021-01-21 15:00:00 18.7 19 Sudoeste 33 Sudoeste 0 1018.8 -- 66
2021-01-21 14:00:00 19.8 16 Sudoeste 28 Sudoeste 0 1019.2 -- 65
2021-01-21 13:00:00 17.6 13 Sudoeste 23 Sudoeste 0 1020.1 -- 72
2021-01-21 12:00:00 18.4 11 Sudoeste 20 Oeste 0 1020.5 -- 70
2021-01-21 11:00:00 16 5 Sudoeste 9 Sudoeste 0 1020.2 -- 82
2021-01-21 10:00:00 10.5 0 Calma 6 Noroeste 0 1019.7 -- 91
2021-01-21 09:00:00 8.2 0 Calma 5 Noroeste 0 1018.7 -- 90
2021-01-21 08:00:00 8.3 0 Calma 3 Noroeste 0 1018.3 -- 89
2021-01-21 07:00:00 8.8 0 Calma 4 Oeste 0 1018.2 -- 89
2021-01-21 06:00:00 9.8 3 Oeste 9 Oeste 0 1017.9 -- 89
2021-01-21 05:00:00 11 5 Oeste 10 Oeste 0 1017.9 -- 90
2021-01-21 04:00:00 11.2 4 Oeste 10 Oeste 0 1017.5 -- 90
2021-01-21 03:00:00 11.7 6 Sudoeste 11 Oeste 0 1016.9 -- 89
2021-01-21 02:00:00 11.9 5 Sudoeste 18 Sudoeste 0 1016.6 -- 88
2021-01-21 01:00:00 12.5 6 Sudoeste 15 Oeste 0 1016.5 -- 88
2021-01-21 00:00:00 12.8 7 Oeste 16 Sudoeste 0 1016.2 -- 87
2021-01-20 23:00:00 12.7 8 Sudoeste 17 Sudoeste 0 1015.7 -- 87
2021-01-20 22:00:00 12.5 8 Sudoeste 15 Sudoeste 0 1015.1 -- 83
2021-01-20 21:00:00 13.4 9 Oeste 20 Oeste 0 1014.5 -- 75
2021-01-20 20:00:00 14 12 Oeste 24 Oeste 0 1013.6 -- 69
2021-01-20 19:00:00 15.1 15 Oeste 29 Oeste 0 1012.6 -- 68
2021-01-20 18:00:00 15.8 15 Oeste 27 Oeste 0 1011.6 -- 67
2021-01-20 17:00:00 16.7 14 Oeste 29 Oeste 0 1011 -- 60
2021-01-20 16:00:00 17 15 Oeste 36 Sudoeste 0.2 1010.8 -- 72
2021-01-20 15:00:00 18 17 Sudoeste 33 Sudoeste 0 1010.7 -- 61
2021-01-20 14:00:00 18.7 17 Sudoeste 29 Sudoeste 0 1011.1 -- 71
2021-01-20 13:00:00 18.4 14 Sudoeste 31 Oeste 0 1012 -- 77
2021-01-20 12:00:00 16.5 14 Oeste 39 Sudoeste 0 1012.6 -- 83
2021-01-20 11:00:00 15.6 21 Sudoeste 40 Sudoeste 0.1 1012 -- 89
2021-01-20 10:00:00 14.7 21 Sudoeste 45 Sudoeste 1.2 1011.8 -- 90
2021-01-20 09:00:00 14.9 27 Sudoeste 50 Sudoeste 1.3 1011.6 -- 89
2021-01-20 08:00:00 14.6 26 Sudoeste 42 Sudoeste 2.1 1011.8 -- 87
2021-01-20 07:00:00 14.8 24 Sudoeste 41 Sudoeste 0.3 1012.5 -- 76
2021-01-20 06:00:00 15 25 Sudoeste 45 Sudoeste 0 1013.1 -- 70
2021-01-20 05:00:00 15.4 20 Sudoeste 35 Sur 0 1013.5 -- 64
2021-01-20 04:00:00 15 17 Sudoeste 32 Sudoeste 0 1014.9 -- 64
2021-01-20 03:00:00 15.2 17 Sudoeste 32 Sudoeste 0 1015.7 -- 64
2021-01-20 02:00:00 15.2 19 Sudoeste 38 Sudoeste 0 1016.5 -- 60
2021-01-20 01:00:00 15 14 Sudoeste 24 Sur 0 1017.3 -- 61
2021-01-20 00:00:00 14.8 13 Sudoeste 24 Sudoeste 0 1018.2 -- 61
2021-01-19 23:00:00 14.8 17 Sudoeste 28 Sudoeste 0 1018.8 -- 59
2021-01-19 22:00:00 14.8 11 Sudoeste 24 Sudoeste 0 1019.1 -- 58
2021-01-19 21:00:00 14.9 11 Sur 20 Sudoeste 0 1019.5 -- 63
2021-01-19 20:00:00 14.2 6 Sur 10 Sur 0 1019.9 -- 61
2021-01-19 19:00:00 14 5 Sudoeste 22 Sudoeste 0 1020.2 -- 61
2021-01-19 18:00:00 14.4 10 Sudoeste 19 Sudoeste 0 1021 -- 59
2021-01-19 17:00:00 15 9 Sudoeste 15 Sudoeste 0 1021 -- 62
2021-01-19 16:00:00 13.8 11 Este 23 Este 0 1021 -- 77
2021-01-19 15:00:00 13.6 13 Este 26 Este 0 1021.6 -- 74
2021-01-19 14:00:00 12.9 11 Este 21 Este 0 1022.5 -- 75
2021-01-19 13:00:00 12.8 10 Este 18 Este 0 1023.9 -- 78
2021-01-19 12:00:00 11.6 2 Nordeste 13 Este 0 1025 -- 81
2021-01-19 11:00:00 10.7 5 Este 14 Este 0 1024.6 -- 82
2021-01-19 10:00:00 10.1 4 Nordeste 9 Este 0 1024.4 -- 86
2021-01-19 09:00:00 9.5 5 Este 10 Este 0 1023.8 -- 89
2021-01-19 08:00:00 9.3 0 Calma 6 Nordeste 0 1024.2 -- 92
2021-01-19 07:00:00 9.1 2 Nordeste 4 Nordeste 0 1024.1 -- 92
2021-01-19 06:00:00 8.6 2 Norte 7 Nordeste 0 1024.3 -- 92
2021-01-19 05:00:00 8.4 3 Nordeste 8 Norte 0 1024.6 -- 93
2021-01-19 04:00:00 7.4 2 Norte 6 Norte 0 1025.1 -- 93
2021-01-19 03:00:00 5.6 2 Norte 4 Norte 0 1025.2 -- 92
2021-01-19 02:00:00 6 0 Calma 5 Noroeste 0 1025.4 -- 92
2021-01-19 01:00:00 6.2 0 Calma 5 Noroeste 0 1025.7 -- 92
2021-01-19 00:00:00 5.8 0 Calma 2 Este 0 1025.9 -- 89
2021-01-18 23:00:00 7 0 Calma 6 Noroeste 0 1025.5 -- 90
2021-01-18 22:00:00 7.2 0 Calma 3 Nordeste 0 1025.2 -- 89
2021-01-18 21:00:00 8.6 0 Calma 5 Noroeste 0 1025.1 -- 86
2021-01-18 20:00:00 9.9 0 Calma 2 Sudeste 0 1024.9 -- 81
2021-01-18 19:00:00 11.9 0 Calma 6 Sur 0 1024.5 -- 74
2021-01-18 18:00:00 14.6 4 Sur 13 Sur 0 1024.4 -- 64
2021-01-18 17:00:00 15.4 5 Sur 12 Sur 0 1024.2 -- 56
2021-01-18 16:00:00 16 5 Sudeste 11 Sur 0 1024.2 -- 53
2021-01-18 15:00:00 16.2 5 Sur 12 Este 0 1024.3 -- 54
2021-01-18 14:00:00 16.3 4 Este 10 Sudeste 0 1025.1 -- 55
2021-01-18 13:00:00 14.7 3 Este 13 Este 0 1026 -- 54
2021-01-18 12:00:00 13.3 5 Este 10 Este 0 1026.6 -- 52
2021-01-18 11:00:00 9.5 2 Norte 8 Nordeste 0 1026.4 -- 67
2021-01-18 10:00:00 6.9 0 Calma 6 Norte 0 1025.9 -- 79
2021-01-18 09:00:00 4.3 2 Nordeste 6 Noroeste 0 1025.5 -- 85
2021-01-18 08:00:00 4.6 0 Calma 8 Nordeste 0 1025.2 -- 83
2021-01-18 07:00:00 4.9 3 Nordeste 7 Nordeste 0 1024.6 -- 85
2021-01-18 06:00:00 3.6 0 Calma 5 Norte 0 1024.6 -- 82
2021-01-18 05:00:00 4.3 0 Calma 5 Nordeste 0 1024.7 -- 78
2021-01-18 04:00:00 6.1 0 Calma 9 Norte 0 1025 -- 71
2021-01-18 03:00:00 7.6 0 Calma 12 Noroeste 0 1025.2 -- 64
2021-01-18 02:00:00 9 3 Noroeste 13 Norte 0 1025.2 -- 58
2021-01-18 01:00:00 9.1 3 Norte 13 Noroeste 0 1025.4 -- 58
2021-01-18 00:00:00 9.7 3 Norte 13 Noroeste 0 1025.6 -- 57
2021-01-17 23:00:00 11.2 5 Norte 15 Norte 0 1025.6 -- 55
2021-01-17 22:00:00 9.1 3 Norte 9 Noroeste 0 1025.7 -- 70
2021-01-17 21:00:00 8.9 2 Norte 9 Noroeste 0 1025.8 -- 75
2021-01-17 20:00:00 10.8 5 Noroeste 9 Norte 0 1026 -- 72
2021-01-17 19:00:00 11.6 0 Calma 4 Noroeste 0 1025.9 -- 66
2021-01-17 18:00:00 14.7 3 Sur 9 Sudoeste 0 1025.8 -- 53
2021-01-17 17:00:00 15.8 4 Sur 12 Sudeste 0 1026 -- 46
2021-01-17 16:00:00 16.9 6 Sudeste 11 Sur 0 1026.1 -- 36
2021-01-17 15:00:00 17.7 5 Sudeste 17 Nordeste 0 1026.4 -- 33
2021-01-17 14:00:00 17 7 Este 17 Nordeste 0 1027 -- 33
2021-01-17 13:00:00 15.3 3 Norte 10 Noroeste 0 1028.2 -- 48
2021-01-17 12:00:00 12.1 4 Norte 9 Noroeste 0 1028.8 -- 60
2021-01-17 11:00:00 9.8 3 Norte 12 Norte 0 1028.9 -- 68
2021-01-17 10:00:00 6.8 5 Norte 13 Norte 0 1028.3 -- 80
2021-01-17 09:00:00 5.6 5 Norte 13 Norte 0 1027.8 -- 86
2021-01-17 08:00:00 5.5 5 Norte 11 Norte 0 1028 -- 86
2021-01-17 07:00:00 5.7 8 Norte 15 Noroeste 0 1027.5 -- 85
2021-01-17 06:00:00 6 4 Norte 10 Noroeste 0 1027.3 -- 87
2021-01-17 05:00:00 5.1 3 Norte 9 Noroeste 0 1027.1 -- 88
2021-01-17 04:00:00 5.1 3 Norte 8 Noroeste 0 1027.2 -- 86
2021-01-17 03:00:00 6.8 0 Calma 12 Norte 0 1027 -- 80
2021-01-17 02:00:00 8.2 5 Norte 11 Norte 0 1027.1 -- 78
2021-01-17 01:00:00 8.4 3 Nordeste 9 Este 0 1028.2 -- 75
2021-01-17 00:00:00 9.7 5 Este 17 Noroeste 0 1028.3 -- 68
2021-01-16 23:00:00 10.9 9 Norte 17 Norte 0 1027.7 -- 63
2021-01-16 22:00:00 10.7 3 Noroeste 19 Norte 0 1027.2 -- 58
2021-01-16 21:00:00 11.9 8 Norte 18 Noroeste 0 1026.8 -- 55
2021-01-16 20:00:00 12.3 6 Norte 17 Noroeste 0 1026.7 -- 54
2021-01-16 19:00:00 12.6 3 Norte 10 Noroeste 0 1026.4 -- 51
2021-01-16 18:00:00 15.4 3 Norte 11 Norte 0 1026.1 -- 43
2021-01-16 17:00:00 16.7 5 Noroeste 14 Norte 0 1025.9 -- 41
2021-01-16 16:00:00 16.5 6 Norte 14 Noroeste 0 1026 -- 41
2021-01-16 15:00:00 15.4 7 Noroeste 12 Oeste 0 1026.2 -- 44
2021-01-16 14:00:00 14.2 4 Noroeste 11 Noroeste 0 1026.9 -- 48
2021-01-16 13:00:00 13.3 4 Norte 12 Norte 0 1027.5 -- 53
2021-01-16 12:00:00 11.2 5 Norte 17 Norte 0 1027.9 -- 65
2021-01-16 11:00:00 8.8 6 Norte 15 Norte 0 1028.2 -- 73
2021-01-16 10:00:00 7.1 5 Norte 17 Noroeste 0 1027.6 -- 79
2021-01-16 09:00:00 6.1 4 Norte 17 Norte 0 1026.8 -- 83
2021-01-16 08:00:00 6.9 5 Norte 15 Noroeste 0 1026.4 -- 81
2021-01-16 07:00:00 7.2 5 Norte 16 Norte 0 1026.1 -- 80
2021-01-16 06:00:00 6.9 6 Norte 15 Norte 0 1026.1 -- 79
2021-01-16 05:00:00 7.4 5 Norte 15 Noroeste 0 1026.2 -- 78
2021-01-16 04:00:00 7.7 4 Noroeste 11 Norte 0 1026 -- 77
2021-01-16 03:00:00 8.2 4 Norte 15 Norte 0 1026.1 -- 77
2021-01-16 02:00:00 8.7 5 Norte 18 Noroeste 0 1025.9 -- 77
2021-01-16 01:00:00 8.4 6 Norte 17 Noroeste 0 1026.4 -- 80
2021-01-16 00:00:00 8.3 5 Norte 17 Noroeste 0 1026.4 -- 77
2021-01-15 23:00:00 8.8 5 Norte 14 Noroeste 0 1026.3 -- 74
2021-01-15 22:00:00 9 4 Norte 12 Noroeste 0 1026 -- 73
2021-01-15 21:00:00 8.2 4 Noroeste 12 Noroeste 0 1026.1 -- 74
2021-01-15 20:00:00 8.6 2 Noroeste 6 Noroeste 0 1026.3 -- 64
2021-01-15 19:00:00 10.7 3 Norte 9 Norte 0 1026 -- 53
2021-01-15 18:00:00 13.3 3 Norte 15 Norte 0 1025.7 -- 45
2021-01-15 17:00:00 14.7 6 Noroeste 19 Noroeste 0 1025.5 -- 43
2021-01-15 16:00:00 15.5 6 Norte 22 Norte 0 1025.8 -- 43
2021-01-15 15:00:00 15.1 4 Norte 15 Norte 0 1026.1 -- 43
2021-01-15 14:00:00 13.7 5 Norte 14 Noroeste 0 1026.6 -- 47
2021-01-15 13:00:00 11.6 8 Noroeste 17 Norte 0 1027.5 -- 54
2021-01-15 12:00:00 10 5 Norte 18 Noroeste 0 1028.4 -- 65
2021-01-15 11:00:00 9 4 Noroeste 19 Norte 0 1028.3 -- 78
2021-01-15 10:00:00 6.8 6 Norte 23 Norte 0 1027.9 -- 89
2021-01-15 09:00:00 6.3 9 Norte 23 Noroeste 0 1027.3 -- 90
2021-01-15 08:00:00 6.3 7 Norte 21 Noroeste 0 1027 -- 90
2021-01-15 07:00:00 6.5 8 Norte 27 Norte 0 1026.7 -- 90
2021-01-15 06:00:00 6.6 9 Norte 23 Noroeste 0 1026.6 -- 90
2021-01-15 05:00:00 7.1 5 Norte 17 Norte 0 1026.8 -- 87
2021-01-15 04:00:00 7.4 6 Norte 13 Noroeste 0 1026.8 -- 86
2021-01-15 03:00:00 6.8 2 Norte 10 Norte 0 1026.8 -- 84
2021-01-15 02:00:00 7.4 0 Calma 13 Norte 0 1026.7 -- 81
2021-01-15 01:00:00 8 5 Norte 10 Norte 0 1026.9 -- 80
2021-01-15 00:00:00 8.7 3 Norte 13 Norte 0 1027.1 -- 75
2021-01-14 23:00:00 9.3 6 Noroeste 15 Noroeste 0 1026.8 -- 75
2021-01-14 22:00:00 8.8 4 Noroeste 15 Noroeste 0 1026.7 -- 75
2021-01-14 21:00:00 9.5 6 Noroeste 13 Norte 0 1026.6 -- 74
2021-01-14 20:00:00 9.6 3 Noroeste 11 Noroeste 0 1026.4 -- 67
2021-01-14 19:00:00 11.4 4 Noroeste 19 Norte 0 1026.4 -- 60
2021-01-14 18:00:00 13 8 Noroeste 17 Noroeste 0 1026.3 -- 55
2021-01-14 17:00:00 13.3 5 Norte 13 Norte 0 1026.2 -- 56
2021-01-14 16:00:00 12.9 5 Nordeste 17 Norte 0 1026.1 -- 57
2021-01-14 15:00:00 12.4 6 Norte 22 Nordeste 0 1026.5 -- 58
2021-01-14 14:00:00 10.5 13 Norte 29 Noroeste 0 1027.5 -- 64
2021-01-14 13:00:00 9.6 13 Norte 27 Norte 0 1028.2 -- 68
2021-01-14 12:00:00 8.8 11 Norte 25 Noroeste 0 1029.1 -- 71
2021-01-14 11:00:00 7.7 8 Norte 25 Noroeste 0 1029 -- 79
2021-01-14 10:00:00 6.3 6 Norte 15 Noroeste 0 1028.6 -- 90
2021-01-14 09:00:00 5 3 Norte 14 Norte 0 1028.2 -- 91
2021-01-14 08:00:00 3.9 0 Calma 7 Norte 0 1028 -- 91
2021-01-14 07:00:00 4.6 4 Norte 9 Norte 0 1027.9 -- 91
2021-01-14 06:00:00 3.8 2 Nordeste 6 Nordeste 0 1027.9 -- 90
2021-01-14 05:00:00 3.9 0 Calma 7 Noroeste 0 1028.2 -- 86
2021-01-14 04:00:00 4.5 0 Calma 7 Norte 0 1028.2 -- 82
2021-01-14 03:00:00 5.5 4 Norte 11 Norte 0 1028.6 -- 76
2021-01-14 02:00:00 6.3 2 Norte 13 Norte 0 1028.7 -- 69
2021-01-14 01:00:00 6.2 4 Norte 15 Norte 0 1028.9 -- 69
2021-01-14 00:00:00 5.2 2 Norte 9 Noroeste 0 1029.2 -- 74
2021-01-13 23:00:00 5.3 3 Noroeste 9 Norte 0 1029.1 -- 75
2021-01-13 22:00:00 5.8 4 Noroeste 10 Norte 0 1029 -- 75
2021-01-13 21:00:00 7.2 5 Noroeste 10 Noroeste 0 1029 -- 79
2021-01-13 20:00:00 8.5 4 Noroeste 8 Oeste 0 1029 -- 74
2021-01-13 19:00:00 10 4 Oeste 8 Sudoeste 0 1028.3 -- 63
2021-01-13 18:00:00 12.4 5 Sudoeste 14 Oeste 0 1028.4 -- 51
2021-01-13 17:00:00 13.8 6 Sudoeste 15 Sudoeste 0 1028.3 -- 45
2021-01-13 16:00:00 15.3 5 Noroeste 11 Noroeste 0 1028.4 -- 34
2021-01-13 15:00:00 14.5 4 Norte 15 Noroeste 0 1028.2 -- 36
2021-01-13 14:00:00 13.6 3 Nordeste 15 Norte 0 1028.9 -- 41
2021-01-13 13:00:00 12.3 5 Noroeste 17 Noroeste 0 1029.9 -- 45
2021-01-13 12:00:00 9.5 5 Norte 18 Noroeste 0 1030.6 -- 52
2021-01-13 11:00:00 7.2 4 Norte 14 Norte 0 1030.6 -- 61
2021-01-13 10:00:00 5.1 4 Norte 14 Norte 0 1030.2 -- 68
2021-01-13 09:00:00 3.5 3 Norte 13 Norte 0 1029.8 -- 74
2021-01-13 08:00:00 3.5 2 Norte 12 Noroeste 0 1029.4 -- 73
2021-01-13 07:00:00 3.7 4 Norte 13 Norte 0 1029 -- 73
2021-01-13 06:00:00 4 3 Norte 10 Norte 0 1028.8 -- 73
2021-01-13 05:00:00 4 5 Norte 14 Norte 0 1029.1 -- 72
2021-01-13 04:00:00 3.7 0 Calma 11 Norte 0 1029 -- 77
2021-01-13 03:00:00 2.4 0 Calma 5 Nordeste 0 1028.8 -- 83
2021-01-13 02:00:00 3.3 0 Calma 9 Noroeste 0 1028.9 -- 79
2021-01-13 01:00:00 3.6 5 Norte 10 Noroeste 0 1029.4 -- 81
2021-01-13 00:00:00 4 3 Norte 9 Norte 0 1029.7 -- 80
2021-01-12 23:00:00 4.1 5 Norte 8 Norte 0 1029.5 -- 82
2021-01-12 22:00:00 5.2 4 Noroeste 10 Noroeste 0 1029.4 -- 79
2021-01-12 21:00:00 5.9 3 Noroeste 7 Noroeste 0 1029.1 -- 78
2021-01-12 20:00:00 6.8 4 Norte 9 Norte 0 1028.8 -- 74
2021-01-12 19:00:00 8.3 0 Calma 4 Sudoeste 0 1028.2 -- 62
2021-01-12 18:00:00 12.1 3 Sur 9 Este 0 1028.1 -- 47
2021-01-12 17:00:00 13.1 3 Este 12 Sudeste 0 1027.8 -- 41
2021-01-12 16:00:00 13.5 6 Este 12 Este 0 1028 -- 41
2021-01-12 15:00:00 14.2 3 Este 12 Sudeste 0 1028 -- 40
2021-01-12 14:00:00 12.5 3 Este 13 Nordeste 0 1028.6 -- 42
2021-01-12 13:00:00 11.5 6 Este 14 Este 0 1029.2 -- 44
2021-01-12 12:00:00 9.8 8 Este 13 Este 0 1030 -- 46
2021-01-12 11:00:00 6.8 4 Norte 10 Norte 0 1029.7 -- 62
2021-01-12 10:00:00 4.1 3 Norte 8 Noroeste 0 1028.6 -- 71
2021-01-12 09:00:00 2.4 4 Norte 9 Norte 0 1028.1 -- 79
2021-01-12 08:00:00 2.7 3 Norte 10 Noroeste 0 1027.7 -- 75
2021-01-12 07:00:00 3.3 4 Norte 10 Norte 0 1026.9 -- 73
2021-01-12 06:00:00 3.6 5 Norte 14 Norte 0 1026.4 -- 72
2021-01-12 05:00:00 4.5 7 Norte 17 Noroeste 0 1026.5 -- 69
2021-01-12 04:00:00 4.6 5 Norte 14 Norte 0 1026.6 -- 69
2021-01-12 03:00:00 4.9 9 Noroeste 15 Noroeste 0 1026 -- 69
2021-01-12 02:00:00 5.2 4 Norte 11 Norte 0 1025.6 -- 68
2021-01-12 01:00:00 5.8 5 Norte 14 Noroeste 0 1025.4 -- 66
2021-01-12 00:00:00 5.8 4 Norte 9 Noroeste 0 1025.4 -- 67
2021-01-11 23:00:00 6.2 6 Norte 10 Noroeste 0 1024.8 -- 65
2021-01-11 22:00:00 7.4 4 Noroeste 14 Noroeste 0 1024.1 -- 62
2021-01-11 21:00:00 7.7 4 Noroeste 13 Norte 0 1023.5 -- 63
2021-01-11 20:00:00 8.8 5 Noroeste 13 Noroeste 0 1022.6 -- 58
2021-01-11 19:00:00 10 3 Noroeste 8 Norte 0 1021.7 -- 56
2021-01-11 18:00:00 12.2 3 Noroeste 10 Noroeste 0 1021 -- 47
2021-01-11 17:00:00 13 4 Norte 14 Noroeste 0 1020.7 -- 46
2021-01-11 16:00:00 13.1 8 Noroeste 16 Noroeste 0 1020.2 -- 45
2021-01-11 15:00:00 12.3 5 Noroeste 14 Norte 0 1019.9 -- 47
2021-01-11 14:00:00 11.6 7 Noroeste 16 Oeste 0 1020.1 -- 50
2021-01-11 13:00:00 10.5 5 Norte 17 Norte 0 1020.4 -- 55
2021-01-11 12:00:00 8.6 6 Norte 17 Nordeste 0 1020.6 -- 59
2021-01-11 11:00:00 6.6 11 Norte 21 Norte 0 1020.1 -- 66
2021-01-11 10:00:00 5.2 6 Norte 19 Norte 0 1019.4 -- 73
2021-01-11 09:00:00 3.9 8 Noroeste 17 Norte 0 1018.4 -- 76
2021-01-11 08:00:00 4.2 8 Noroeste 23 Noroeste 0 1017.5 -- 75
2021-01-11 07:00:00 4.5 10 Noroeste 24 Norte 0 1016.8 -- 72
2021-01-11 06:00:00 4.8 12 Noroeste 27 Noroeste 0 1016.1 -- 72
2021-01-11 05:00:00 5 9 Norte 21 Noroeste 0 1015.8 -- 70
2021-01-11 04:00:00 5.4 9 Norte 21 Norte 0 1015.8 -- 69
2021-01-11 03:00:00 5.7 7 Noroeste 21 Norte 0 1015.3 -- 69
2021-01-11 02:00:00 6 8 Norte 23 Norte 0 1014.7 -- 66
2021-01-11 01:00:00 6.6 9 Norte 20 Noroeste 0 1014.7 -- 64
2021-01-11 00:00:00 7.1 9 Noroeste 21 Noroeste 0 1014.4 -- 64
2021-01-10 23:00:00 7.4 5 Norte 14 Noroeste 0 1014.2 -- 65
2021-01-10 22:00:00 7.6 3 Nordeste 19 Noroeste 0 1013.9 -- 64
2021-01-10 21:00:00 8.2 7 Norte 18 Noroeste 0 1013.1 -- 61
2021-01-10 20:00:00 8.8 8 Norte 22 Norte 0 1012.5 -- 61
2021-01-10 19:00:00 9 10 Noroeste 23 Noroeste 0 1011.8 -- 61
2021-01-10 18:00:00 9.9 9 Norte 23 Norte 0 1011.3 -- 56
2021-01-10 17:00:00 10 7 Norte 20 Noroeste 0 1010.9 -- 55
2021-01-10 16:00:00 11.9 6 Nordeste 17 Nordeste 0 1010.4 -- 50
2021-01-10 15:00:00 9.9 4 Nordeste 15 Nordeste 0 1009.9 -- 56
2021-01-10 14:00:00 9.5 4 Norte 18 Nordeste 0 1009.7 -- 60
2021-01-10 13:00:00 7.8 6 Norte 17 Noroeste 0 1010.1 -- 69
2021-01-10 12:00:00 8.2 7 Norte 19 Norte 0 1010.6 -- 69
2021-01-10 11:00:00 7.4 5 Norte 22 Norte 0 1009.8 -- 69
2021-01-10 10:00:00 6.6 5 Norte 21 Norte 0 1008.7 -- 77
2021-01-10 09:00:00 5.5 8 Norte 23 Norte 0 1007.6 -- 79
2021-01-10 08:00:00 5.1 9 Noroeste 22 Noroeste 0 1006.7 -- 79
2021-01-10 07:00:00 4.8 10 Noroeste 21 Norte 0 1006.3 -- 79
2021-01-10 06:00:00 5.2 6 Noroeste 13 Noroeste 0 1006 -- 77
2021-01-10 05:00:00 5.2 5 Noroeste 15 Noroeste 0 1005.8 -- 77
2021-01-10 04:00:00 5.1 7 Noroeste 15 Noroeste 0 1005.8 -- 78
2021-01-10 03:00:00 5.2 6 Noroeste 15 Noroeste 0 1005.6 -- 77
2021-01-10 02:00:00 5.5 6 Noroeste 15 Oeste 0 1005.5 -- 76
2021-01-10 01:00:00 5.4 6 Noroeste 14 Norte 0 1005.5 -- 76
2021-01-10 00:00:00 5.3 4 Noroeste 16 Noroeste 0 1005.7 -- 76
2021-01-09 23:00:00 5.1 6 Noroeste 14 Noroeste 0 1005.7 -- 75
2021-01-09 22:00:00 5.2 4 Noroeste 14 Norte 0 1005.4 -- 74
2021-01-09 21:00:00 5.3 6 Noroeste 19 Norte 0 1005.2 -- 71
2021-01-09 20:00:00 6.1 9 Noroeste 26 Noroeste 0 1004.9 -- 61
2021-01-09 19:00:00 7.5 12 Noroeste 25 Noroeste 0 1004.1 -- 52
2021-01-09 18:00:00 9.1 7 Norte 25 Noroeste 0 1003.2 -- 46
2021-01-09 17:00:00 10.5 12 Noroeste 23 Noroeste 0 1002.6 -- 41
2021-01-09 16:00:00 11.5 6 Noroeste 22 Noroeste 0 1002.4 -- 42
2021-01-09 15:00:00 11.8 6 Noroeste 17 Noroeste 0 1002.4 -- 40
2021-01-09 14:00:00 12.1 7 Noroeste 20 Oeste 0 1003.1 -- 39
2021-01-09 13:00:00 11.4 10 Oeste 22 Oeste 0 1004.3 -- 39
2021-01-09 12:00:00 11.2 4 Sudoeste 13 Oeste 0 1005.6 -- 41
2021-01-09 11:00:00 9.2 3 Oeste 7 Sudoeste 0 1005.7 -- 46
2021-01-09 10:00:00 5.8 2 Noroeste 6 Sur 0 1005.3 -- 59
2021-01-09 09:00:00 2.5 4 Oeste 6 Oeste 0 1005 -- 75
2021-01-09 08:00:00 3.3 3 Oeste 11 Noroeste 0 1004.4 -- 73
2021-01-09 07:00:00 4 7 Noroeste 14 Oeste 0 1004.1 -- 70
2021-01-09 06:00:00 4.9 8 Oeste 17 Oeste 0 1004 -- 66
2021-01-09 05:00:00 5.2 10 Oeste 19 Noroeste 0 1003.7 -- 63
2021-01-09 04:00:00 5.7 9 Noroeste 19 Noroeste 0 1003.5 -- 63
2021-01-09 03:00:00 6 12 Noroeste 22 Oeste 0 1003.2 -- 65
2021-01-09 02:00:00 6.5 8 Oeste 17 Noroeste 0 1002.9 -- 65
2021-01-09 01:00:00 7.2 8 Noroeste 29 Noroeste 0 1002.3 -- 66
2021-01-09 00:00:00 7.7 11 Noroeste 34 Noroeste 0 1002.2 -- 71
2021-01-08 23:00:00 7.7 14 Noroeste 38 Norte 0 1001.2 -- 73
2021-01-08 22:00:00 7.6 18 Noroeste 38 Noroeste 0.1 1000.4 -- 73
2021-01-08 21:00:00 7.8 13 Norte 40 Norte 0.1 1000.3 -- 77
2021-01-08 20:00:00 8.1 16 Norte 41 Norte 0 1000 -- 77
2021-01-08 19:00:00 8.3 15 Norte 34 Noroeste 0 998.4 -- 80
2021-01-08 18:00:00 8.8 13 Norte 34 Norte 0 997.6 -- 84
2021-01-08 17:00:00 9.6 12 Norte 33 Norte 0 997.6 -- 85
2021-01-08 16:00:00 9.2 15 Noroeste 32 Norte 0.1 997.7 -- 88
2021-01-08 15:00:00 9 11 Norte 28 Noroeste 0.3 997.8 -- 89
2021-01-08 14:00:00 8.6 7 Norte 23 Norte 0.9 998.7 -- 90
2021-01-08 13:00:00 8 9 Noroeste 22 Norte 2.1 1000.1 -- 90
2021-01-08 12:00:00 7.7 5 Norte 20 Nordeste 0.3 1001.4 -- 89
2021-01-08 11:00:00 7.7 6 Norte 17 Norte 0.1 1002.1 -- 89
2021-01-08 10:00:00 7.3 6 Norte 15 Norte 0.2 1002.3 -- 89
2021-01-08 09:00:00 7.1 4 Norte 14 Nordeste 0.1 1002 -- 90
2021-01-08 08:00:00 7.2 4 Norte 16 Nordeste 0 1002.2 -- 90
2021-01-08 07:00:00 7.2 5 Norte 14 Nordeste 0.9 1002.2 -- 90
2021-01-08 06:00:00 7.3 5 Norte 15 Nordeste 0.8 1002.8 -- 87
2021-01-08 05:00:00 7.7 3 Norte 12 Noroeste 0.1 1003.8 -- 86
2021-01-08 04:00:00 7.9 2 Nordeste 12 Norte 0.4 1004.1 -- 86
2021-01-08 03:00:00 8.2 3 Norte 9 Nordeste 1.1 1004.8 -- 84
2021-01-08 02:00:00 8.9 4 Nordeste 14 Nordeste 0.3 1005.3 -- 77
2021-01-08 01:00:00 9.3 2 Nordeste 10 Nordeste 0 1005.7 -- 74
2021-01-08 00:00:00 9.5 2 Nordeste 12 Este 0 1006 -- 76
2021-01-07 23:00:00 9.8 3 Nordeste 15 Este 0 1006.4 -- 79
2021-01-07 22:00:00 9.9 5 Nordeste 19 Este 0 1006.7 -- 76
2021-01-07 21:00:00 10.4 5 Nordeste 13 Nordeste 0 1006.7 -- 72
2021-01-07 20:00:00 10.7 4 Nordeste 12 Este 0 1006.1 -- 72
2021-01-07 19:00:00 11 2 Nordeste 8 Nordeste 0 1006.2 -- 71
2021-01-07 18:00:00 11.8 0 Calma 9 Nordeste 0 1006.7 -- 66
2021-01-07 17:00:00 12.5 4 Este 14 Nordeste 0 1006.1 -- 61
2021-01-07 16:00:00 12.8 6 Nordeste 13 Este 0 1005.5 -- 56
2021-01-07 15:00:00 13 4 Norte 11 Norte 0 1006.1 -- 57
2021-01-07 14:00:00 12.9 4 Norte 18 Noroeste 0 1006.4 -- 58
2021-01-07 13:00:00 12.6 5 Norte 19 Norte 0 1007.4 -- 60
2021-01-07 12:00:00 11.3 6 Norte 16 Norte 0 1008 -- 66
2021-01-07 11:00:00 9.5 8 Norte 16 Norte 0 1008.1 -- 73
2021-01-07 10:00:00 8.4 4 Norte 18 Norte 0 1007.6 -- 77
2021-01-07 09:00:00 8 4 Norte 19 Noroeste 0 1006.5 -- 81
2021-01-07 08:00:00 8.2 6 Norte 13 Norte 0 1005.8 -- 83
2021-01-07 07:00:00 8 4 Norte 10 Norte 0 1005.4 -- 83
2021-01-07 06:00:00 9.1 0 Calma 8 Nordeste 0 1005.3 -- 83
2021-01-07 05:00:00 9.2 3 Nordeste 10 Norte 0 1005.2 -- 84
2021-01-07 04:00:00 9.4 2 Nordeste 10 Norte 0 1005.4 -- 85
2021-01-07 03:00:00 9.4 4 Norte 18 Nordeste 0 1004.9 -- 86
2021-01-07 02:00:00 9.1 4 Norte 21 Nordeste 0 1004.8 -- 89
2021-01-07 01:00:00 8.9 8 Nordeste 24 Este 0.1 1005.2 -- 89
2021-01-07 00:00:00 8.8 11 Nordeste 22 Este 0.1 1005.3 -- 88
2021-01-06 23:00:00 9.1 10 Este 27 Este 0.1 1005.7 -- 87
2021-01-06 22:00:00 9.5 12 Este 23 Nordeste 0.4 1006 -- 86
2021-01-06 21:00:00 9.8 8 Este 15 Este 0.4 1006.3 -- 83
2021-01-06 20:00:00 9.8 4 Nordeste 11 Nordeste 0.5 1006.4 -- 82
2021-01-06 19:00:00 10.1 5 Este 8 Este 0.1 1006.5 -- 73
2021-01-06 18:00:00 10.6 0 Calma 7 Nordeste 0 1006.6 -- 66
2021-01-06 17:00:00 11.5 3 Nordeste 11 Nordeste 0 1006.9 -- 58
2021-01-06 16:00:00 11.8 4 Nordeste 13 Nordeste 0 1006.9 -- 53
2021-01-06 15:00:00 11.8 6 Nordeste 15 Nordeste 0 1007 -- 51
2021-01-06 14:00:00 10.8 6 Nordeste 15 Este 0 1007.7 -- 56
2021-01-06 13:00:00 8 5 Norte 11 Norte 0 1009 -- 69
2021-01-06 12:00:00 6.6 5 Norte 12 Norte 0 1010.3 -- 71
2021-01-06 11:00:00 5.7 5 Norte 15 Noroeste 0 1010.6 -- 72
2021-01-06 10:00:00 4.2 7 Norte 15 Norte 0 1010.2 -- 80
2021-01-06 09:00:00 3.7 5 Norte 16 Noroeste 0 1009.6 -- 82
2021-01-06 08:00:00 3.4 4 Norte 16 Norte 0 1009.5 -- 84
2021-01-06 07:00:00 3.6 5 Nordeste 14 Norte 0 1009.3 -- 84
2021-01-06 06:00:00 3.5 5 Noroeste 15 Norte 0 1009 -- 85
2021-01-06 05:00:00 3.9 7 Noroeste 14 Noroeste 0 1009.1 -- 85
2021-01-06 04:00:00 4.6 6 Norte 14 Noroeste 0 1009 -- 85
2021-01-06 03:00:00 4.6 0 Calma 16 Noroeste 0 1008.8 -- 85
2021-01-06 02:00:00 5.3 7 Norte 13 Noroeste 0 1008.8 -- 85
2021-01-06 01:00:00 6 2 Este 15 Noroeste 0 1009.1 -- 83
2021-01-06 00:00:00 6.5 5 Nordeste 16 Norte 0 1009.3 -- 85
2021-01-05 23:00:00 6.7 3 Norte 13 Norte 0 1008.9 -- 85
2021-01-05 22:00:00 7 2 Norte 8 Nordeste 0 1008.8 -- 85
2021-01-05 21:00:00 6.7 0 Calma 7 Norte 0 1008.5 -- 79
2021-01-05 20:00:00 7.8 4 Norte 9 Norte 0 1008.3 -- 74
2021-01-05 19:00:00 8.7 2 Norte 10 Norte 0 1008.3 -- 68
2021-01-05 18:00:00 10.5 3 Norte 9 Nordeste 0 1008.1 -- 62
2021-01-05 17:00:00 11.3 4 Nordeste 14 Nordeste 0 1007.7 -- 57
2021-01-05 16:00:00 11.7 5 Nordeste 13 Nordeste 0 1007.7 -- 59
2021-01-05 15:00:00 11.9 4 Este 9 Este 0 1008.3 -- 57
2021-01-05 14:00:00 11.7 3 Este 11 Nordeste 0 1009 -- 58
2021-01-05 13:00:00 11.3 4 Este 15 Este 0 1010.1 -- 61
2021-01-05 12:00:00 10.2 6 Este 10 Este 0 1011.1 -- 69
2021-01-05 11:00:00 8 2 Norte 9 Noroeste 0 1011.3 -- 89
2021-01-05 10:00:00 5 4 Norte 10 Norte 0 1011.2 -- 93
2021-01-05 09:00:00 4.8 0 Calma 7 Noroeste 0 1011.2 -- 93
2021-01-05 08:00:00 5.1 0 Calma 7 Sur 0 1011 -- 92
2021-01-05 07:00:00 6.4 2 Nordeste 6 Este 0 1010.4 -- 91
2021-01-05 06:00:00 6.3 0 Calma 9 Noroeste 0 1010.1 -- 90
2021-01-05 05:00:00 6.6 4 Norte 8 Norte 0.1 1010.6 -- 90
2021-01-05 04:00:00 6.9 3 Norte 10 Nordeste 0 1010.9 -- 90
2021-01-05 03:00:00 7.6 2 Nordeste 10 Noroeste 0 1011 -- 91
2021-01-05 02:00:00 8 0 Calma 7 Noroeste 0 1011.3 -- 91
2021-01-05 01:00:00 7.6 2 Norte 6 Norte 0 1011.5 -- 92
2021-01-05 00:00:00 7.2 3 Norte 6 Norte 0 1011.7 -- 91
2021-01-04 23:00:00 7.2 3 Norte 5 Norte 0 1012.1 -- 90
2021-01-04 22:00:00 8.1 0 Calma 5 Noroeste 0 1012 -- 86
2021-01-04 21:00:00 9.1 2 Norte 5 Noroeste 0.1 1012.2 -- 85
2021-01-04 20:00:00 10.5 3 Oeste 6 Oeste 0.1 1012.8 -- 82
2021-01-04 19:00:00 11.2 0 Calma 7 Norte 0.1 1012.7 -- 75
2021-01-04 18:00:00 11.7 0 Calma 15 Norte 0 1012.4 -- 70
2021-01-04 17:00:00 13.5 4 Sudoeste 15 Sudoeste 0 1012 -- 58
2021-01-04 16:00:00 14.6 8 Sudoeste 14 Oeste 0 1011.9 -- 53
2021-01-04 15:00:00 13.9 6 Sudoeste 14 Sudoeste 0 1012.3 -- 52
2021-01-04 14:00:00 14 7 Sudoeste 16 Sur 0 1013.5 -- 52
2021-01-04 13:00:00 14.3 5 Sur 11 Sudoeste 0 1014.5 -- 49
2021-01-04 12:00:00 11.7 2 Noroeste 6 Oeste 0 1015.6 -- 56
2021-01-04 11:00:00 9.4 0 Calma 6 Norte 0 1015.9 -- 69
2021-01-04 10:00:00 6.4 3 Norte 7 Noroeste 0 1016 -- 83
2021-01-04 09:00:00 3.6 0 Calma 9 Noroeste 0 1015.8 -- 88
2021-01-04 08:00:00 4.3 3 Norte 8 Norte 0 1015.4 -- 86
2021-01-04 07:00:00 6.1 5 Norte 14 Norte 0 1015.4 -- 85
2021-01-04 06:00:00 4.8 0 Calma 8 Norte 0 1015.3 -- 85
2021-01-04 05:00:00 5.5 3 Norte 10 Norte 0 1015.9 -- 83
2021-01-04 04:00:00 5.8 3 Norte 11 Norte 0 1016.2 -- 83
2021-01-04 03:00:00 4.9 0 Calma 9 Noroeste 0 1016.4 -- 85
2021-01-04 02:00:00 4.5 3 Norte 7 Norte 0 1016.6 -- 83
2021-01-04 01:00:00 5.3 4 Norte 8 Norte 0 1016.8 -- 78
2021-01-04 00:00:00 5.7 4 Norte 11 Norte 0 1017.3 -- 77
2021-01-03 23:00:00 6.4 5 Noroeste 10 Noroeste 0 1017.5 -- 74
2021-01-03 22:00:00 6.2 2 Norte 9 Norte 0 1017.5 -- 71
2021-01-03 21:00:00 7.5 3 Noroeste 10 Noroeste 0 1017.6 -- 64
2021-01-03 20:00:00 9 4 Noroeste 10 Norte 0 1017.8 -- 56
2021-01-03 19:00:00 9.1 3 Noroeste 7 Noroeste 0 1017.5 -- 55
2021-01-03 18:00:00 11.9 5 Oeste 12 Sudoeste 0 1017.5 -- 50
2021-01-03 17:00:00 13.4 4 Sudoeste 14 Sudoeste 0 1017.4 -- 43
2021-01-03 16:00:00 14.4 7 Sudoeste 15 Sudoeste 0 1017.2 -- 42
2021-01-03 15:00:00 14.9 7 Sudoeste 14 Noroeste 0 1017.4 -- 42
2021-01-03 14:00:00 13 4 Norte 11 Noroeste 0 1018.1 -- 48
2021-01-03 13:00:00 11.8 4 Norte 13 Norte 0 1019.2 -- 56
2021-01-03 12:00:00 10 4 Norte 12 Noroeste 0 1019.8 -- 65
2021-01-03 11:00:00 7.7 4 Norte 15 Noroeste 0 1019.9 -- 75
2021-01-03 10:00:00 5.8 6 Norte 15 Norte 0 1019.5 -- 80
2021-01-03 09:00:00 4.4 5 Norte 12 Norte 0 1018.8 -- 86
2021-01-03 08:00:00 5 4 Norte 12 Norte 0 1018.6 -- 84
2021-01-03 07:00:00 5.3 3 Noroeste 12 Noroeste 0 1018.6 -- 84
2021-01-03 06:00:00 5.3 5 Norte 14 Norte 0 1018.2 -- 83
2021-01-03 05:00:00 5.4 3 Norte 14 Noroeste 0 1018.2 -- 83
2021-01-03 04:00:00 4.7 3 Norte 9 Noroeste 0 1018.7 -- 88
2021-01-03 03:00:00 4.3 4 Noroeste 8 Noroeste 0 1018.6 -- 89
2021-01-03 02:00:00 4.3 3 Noroeste 6 Noroeste 0 1018.6 -- 88
2021-01-03 01:00:00 4.5 0 Calma 4 Norte 0 1018.5 -- 86
2021-01-03 00:00:00 4.9 0 Calma 5 Noroeste 0 1018.6 -- 82
2021-01-02 23:00:00 6.1 0 Calma 7 Noroeste 0 1018.2 -- 77
2021-01-02 22:00:00 7.8 3 Noroeste 9 Noroeste 0 1017.9 -- 72
2021-01-02 21:00:00 8.1 3 Noroeste 10 Norte 0 1017.6 -- 66
2021-01-02 20:00:00 9.6 5 Norte 13 Noroeste 0 1017.2 -- 61
2021-01-02 19:00:00 10.4 3 Noroeste 11 Noroeste 0 1017 -- 57
2021-01-02 18:00:00 12.1 4 Noroeste 19 Norte 0 1016.8 -- 50
2021-01-02 17:00:00 13 9 Norte 22 Noroeste 0 1016.5 -- 45
2021-01-02 16:00:00 13.6 7 Noroeste 23 Norte 0 1016.2 -- 44
2021-01-02 15:00:00 13.4 9 Noroeste 20 Noroeste 0 1016.2 -- 43
2021-01-02 14:00:00 12.8 5 Norte 19 Noroeste 0 1016.7 -- 47